sensor_id;sensor_type;location;lat;lon;timestamp;temperature;humidity
16321;DHT22;8269;50.990;4.494;2023-07-16T09:08:33;22.10;99.90
16321;DHT22;8269;50.990;4.494;2023-07-16T09:10:58;22.20;99.90
16321;DHT22;8269;50.990;4.494;2023-07-16T09:13:26;22.00;99.90
16321;DHT22;8269;50.990;4.494;2023-07-16T09:15:57;22.00;99.90
16321;DHT22;8269;50.990;4.494;2023-07-16T09:18:27;21.80;99.90
16321;DHT22;8269;50.990;4.494;2023-07-16T09:20:57;22.20;99.90
16321;DHT22;8269;50.990;4.494;2023-07-16T09:28:19;22.30;99.90
16321;DHT22;8269;50.990;4.494;2023-07-16T09:30:45;22.10;99.90
16321;DHT22;8269;50.990;4.494;2023-07-16T09:33:14;21.80;99.90
16321;DHT22;8269;50.990;4.494;2023-07-16T09:35:40;21.90;99.90
16321;DHT22;8269;50.990;4.494;2023-07-16T09:38:08;21.70;99.90
16321;DHT22;8269;50.990;4.494;2023-07-16T09:40:38;21.90;99.90
16321;DHT22;8269;50.990;4.494;2023-07-16T09:43:11;21.80;99.90
16321;DHT22;8269;50.990;4.494;2023-07-16T09:45:40;21.70;99.90
16321;DHT22;8269;50.990;4.494;2023-07-16T09:48:06;22.00;99.90
16321;DHT22;8269;50.990;4.494;2023-07-16T09:50:34;21.70;99.90
16321;DHT22;8269;50.990;4.494;2023-07-16T09:53:00;21.60;99.90
16321;DHT22;8269;50.990;4.494;2023-07-16T09:55:31;21.50;99.90
16321;DHT22;8269;50.990;4.494;2023-07-16T09:58:01;21.40;99.90
16321;DHT22;8269;50.990;4.494;2023-07-16T10:00:27;21.10;99.90
16321;DHT22;8269;50.990;4.494;2023-07-16T10:02:54;21.10;99.90
16321;DHT22;8269;50.990;4.494;2023-07-16T10:05:27;21.10;99.90
16321;DHT22;8269;50.990;4.494;2023-07-16T10:40:18;21.40;99.90
16321;DHT22;8269;50.990;4.494;2023-07-16T10:42:44;21.30;99.90
16321;DHT22;8269;50.990;4.494;2023-07-16T12:21:17;23.30;99.90
16321;DHT22;8269;50.990;4.494;2023-07-16T12:26:09;23.20;99.90
16321;DHT22;8269;50.990;4.494;2023-07-16T12:28:34;23.30;99.90
16321;DHT22;8269;50.990;4.494;2023-07-16T12:31:00;23.30;99.90
16321;DHT22;8269;50.990;4.494;2023-07-16T12:33:25;23.30;99.90
16321;DHT22;8269;50.990;4.494;2023-07-16T12:35:51;23.40;99.90
16321;DHT22;8269;50.990;4.494;2023-07-16T12:38:17;23.50;99.90
16321;DHT22;8269;50.990;4.494;2023-07-16T12:40:42;23.50;99.90
16321;DHT22;8269;50.990;4.494;2023-07-16T12:43:08;23.20;99.90
16321;DHT22;8269;50.990;4.494;2023-07-16T12:45:35;23.10;99.90
16321;DHT22;8269;50.990;4.494;2023-07-16T21:39:46;19.00;99.90
16321;DHT22;8269;50.990;4.494;2023-07-16T21:42:12;19.10;99.90
16321;DHT22;8269;50.990;4.494;2023-07-16T21:44:38;19.00;99.90
16321;DHT22;8269;50.990;4.494;2023-07-16T21:47:06;18.90;99.90
16321;DHT22;8269;50.990;4.494;2023-07-16T21:49:34;18.90;99.90
16321;DHT22;8269;50.990;4.494;2023-07-16T21:52:00;18.80;99.90
16321;DHT22;8269;50.990;4.494;2023-07-16T21:54:34;18.70;99.90
16321;DHT22;8269;50.990;4.494;2023-07-16T21:57:03;18.70;99.90
16321;DHT22;8269;50.990;4.494;2023-07-16T21:59:29;18.70;99.90
16321;DHT22;8269;50.990;4.494;2023-07-16T22:01:56;18.70;99.90
16321;DHT22;8269;50.990;4.494;2023-07-16T22:04:22;18.60;99.90
16321;DHT22;8269;50.990;4.494;2023-07-16T22:06:48;18.70;99.90
16321;DHT22;8269;50.990;4.494;2023-07-16T22:09:14;18.50;99.90
16321;DHT22;8269;50.990;4.494;2023-07-16T22:11:43;18.50;99.90
16321;DHT22;8269;50.990;4.494;2023-07-16T22:14:11;18.50;99.90
16321;DHT22;8269;50.990;4.494;2023-07-16T22:16:36;18.40;99.90
16321;DHT22;8269;50.990;4.494;2023-07-16T22:19:03;18.40;99.90
16321;DHT22;8269;50.990;4.494;2023-07-16T22:26:43;18.20;99.90
16321;DHT22;8269;50.990;4.494;2023-07-16T22:29:11;18.10;99.90
16321;DHT22;8269;50.990;4.494;2023-07-16T22:31:37;18.00;99.90
16321;DHT22;8269;50.990;4.494;2023-07-16T22:34:02;18.00;99.90
16321;DHT22;8269;50.990;4.494;2023-07-16T22:36:28;17.90;99.90
16321;DHT22;8269;50.990;4.494;2023-07-16T22:38:54;17.90;99.90
16321;DHT22;8269;50.990;4.494;2023-07-16T22:41:20;17.90;99.90
16321;DHT22;8269;50.990;4.494;2023-07-16T22:43:47;17.90;99.90
16321;DHT22;8269;50.990;4.494;2023-07-16T22:46:12;17.80;99.90
16321;DHT22;8269;50.990;4.494;2023-07-16T22:48:40;17.80;99.90
16321;DHT22;8269;50.990;4.494;2023-07-16T22:51:06;17.80;99.90
16321;DHT22;8269;50.990;4.494;2023-07-16T22:53:32;17.70;99.90
16321;DHT22;8269;50.990;4.494;2023-07-16T22:56:07;17.60;99.90
16321;DHT22;8269;50.990;4.494;2023-07-16T22:58:33;17.60;99.90
16321;DHT22;8269;50.990;4.494;2023-07-16T23:01:03;17.50;99.90
16321;DHT22;8269;50.990;4.494;2023-07-16T23:03:29;17.40;99.90
16321;DHT22;8269;50.990;4.494;2023-07-16T23:05:55;17.30;99.90
16321;DHT22;8269;50.990;4.494;2023-07-16T23:08:20;17.30;99.90
16321;DHT22;8269;50.990;4.494;2023-07-16T23:10:52;17.30;99.90
16321;DHT22;8269;50.990;4.494;2023-07-16T23:13:22;17.30;99.90
16321;DHT22;8269;50.990;4.494;2023-07-16T23:15:50;17.30;99.90
16321;DHT22;8269;50.990;4.494;2023-07-16T23:18:16;17.20;99.90
16321;DHT22;8269;50.990;4.494;2023-07-16T23:20:42;17.20;99.90
16321;DHT22;8269;50.990;4.494;2023-07-16T23:23:07;17.10;99.90
16321;DHT22;8269;50.990;4.494;2023-07-16T23:25:33;17.20;99.90
16321;DHT22;8269;50.990;4.494;2023-07-16T23:28:03;17.20;99.90
16321;DHT22;8269;50.990;4.494;2023-07-16T23:30:36;17.20;99.90
16321;DHT22;8269;50.990;4.494;2023-07-16T23:33:03;17.10;99.90
16321;DHT22;8269;50.990;4.494;2023-07-16T23:35:29;17.10;99.90
16321;DHT22;8269;50.990;4.494;2023-07-16T23:37:55;17.10;99.90
16321;DHT22;8269;50.990;4.494;2023-07-16T23:40:21;17.00;99.90
16321;DHT22;8269;50.990;4.494;2023-07-16T23:42:47;17.00;99.90
16321;DHT22;8269;50.990;4.494;2023-07-16T23:45:13;17.00;99.90
16321;DHT22;8269;50.990;4.494;2023-07-16T23:47:41;17.00;99.90
16321;DHT22;8269;50.990;4.494;2023-07-16T23:50:09;17.00;99.90
16321;DHT22;8269;50.990;4.494;2023-07-16T23:52:35;17.00;99.90
16321;DHT22;8269;50.990;4.494;2023-07-16T23:55:02;17.00;99.90
16321;DHT22;8269;50.990;4.494;2023-07-16T23:57:29;17.00;99.90
16321;DHT22;8269;50.990;4.494;2023-07-16T23:59:55;17.00;99.90
